Time;durP1;ratioP1;P1;durP2;ratioP2;P2;SDS_P1;SDS_P2;PMS_P1;PMS_P2;Temp;Humidity;BMP_temperature;BMP_pressure;BME280_temperature;BME280_humidity;BME280_pressure;Samples;Min_cycle;Max_cycle;Signal;HPM_P1;HPM_P2
2023/12/26 00:03:01;;;;;;;;;;;;;;;;;;5053502;28;19924;-82
2023/12/26 00:08:27;;;;;;;;;;;;;;;;;;5031438;28;20405;-82
2023/12/26 00:10:53;;;;;;;;;;;;;;;;;;4994991;28;19921;-82
2023/12/26 00:13:35;;;;;;;;;;;;;;;;;;4997238;28;20444;-82
2023/12/26 00:16:01;;;;;;;;;;;;;;;;;;4979794;28;19925;-82
2023/12/26 00:18:27;;;;;;;;;;;;;;;;;;4980054;28;19925;-83
2023/12/26 00:20:57;;;;;;;;;;;;;;;;;;5008916;28;19930;-82
2023/12/26 00:23:23;;;;;;;;;;;;;;;;;;4970294;28;19922;-82
2023/12/26 00:25:50;;;;;;;;;;;;;;;;;;4979533;28;20418;-82
2023/12/26 00:28:19;;;;;;;;;;;;;;;;;;4978555;28;20296;-82
2023/12/26 00:30:46;;;;;;;;;;;;;;;;;;4994976;28;20382;-82
2023/12/26 00:33:18;;;;;;;;;;;;;;;;;;4981172;28;19922;-82
2023/12/26 00:36:08;;;;;;;;;;;;;;;;;;4998022;28;20382;-82
2023/12/26 00:38:35;;;;;;;;;;;;;;;;;;5001393;28;20015;-82
2023/12/26 00:41:01;;;;;;;;;;;;;;;;;;5018831;28;19920;-81
2023/12/26 00:43:40;;;;;;;;;;;;;;;;;;5038765;28;19974;-82
2023/12/26 00:46:15;;;;;;;;;;;;;;;;;;5056635;28;19928;-83
2023/12/26 00:48:42;;;;;;;;;;;;;;;;;;5054884;28;19920;-84
2023/12/26 00:51:09;;;;;;;;;;;;;;;;;;5047800;28;19921;-82
2023/12/26 00:53:44;;;;;;;;;;;;;;;;;;5054840;28;19920;-84
2023/12/26 00:56:15;;;;;;;;;;;;;;;;;;5053279;28;19920;-82
2023/12/26 00:58:41;;;;;;;;;;;;;;;;;;5023503;28;19956;-83
2023/12/26 01:01:08;;;;;;;;;;;;;;;;;;5066299;28;19931;-83
2023/12/26 01:03:49;;;;;;;;;;;;;;;;;;5043265;28;19926;-82
2023/12/26 01:07:03;;;;;;;;;;;;;;;;;;5072612;28;20016;-84
2023/12/26 01:09:34;;;;;;;;;;;;;;;;;;5067361;28;19928;-81
2023/12/26 01:12:03;;;;;;;;;;;;;;;;;;5070929;28;20413;-81
2023/12/26 01:14:40;;;;;;;;;;;;;;;;;;5051842;28;20362;-81
2023/12/26 01:17:24;;;;;;;;;;;;;;;;;;5054024;28;20324;-81
2023/12/26 01:25:57;;;;;;;;;;;;;;;;;;5052676;28;20178;-81
2023/12/26 01:28:43;;;;;;;;;;;;;;;;;;5042988;28;20061;-82
2023/12/26 01:40:53;;;;;;;;;;;;;;;;;;5028640;28;19924;-85
2023/12/26 01:43:29;;;;;;;;;;;;;;;;;;5034056;28;20007;-81
2023/12/26 01:52:38;;;;;;;;;;;;;;;;;;4972623;28;19964;-81
2023/12/26 01:58:58;;;;;;;;;;;;;;;;;;4971041;28;19917;-83
2023/12/26 02:23:41;;;;;;;;;;;;;;;;;;4876793;29;20433;-82
2023/12/26 02:29:51;;;;;;;;;;;;;;;;;;4914686;29;19961;-82
2023/12/26 02:41:36;;;;;;;;;;;;;;;;;;5052607;28;19999;-82
2023/12/26 03:45:46;;;;;;;;;;;;;;;;;;5048359;28;20381;-83
2023/12/26 03:55:51;;;;;;;;;;;;;;;;;;5054478;28;19923;-83
2023/12/26 04:11:22;;;;;;;;;;;;;;;;;;5051064;28;19932;-83
2023/12/26 04:14:21;;;;;;;;;;;;;;;;;;5030357;28;19921;-83
2023/12/26 04:17:23;;;;;;;;;;;;;;;;;;5026353;28;19935;-83
2023/12/26 04:23:07;;;;;;;;;;;;;;;;;;5054965;28;20432;-83
2023/12/26 04:26:00;;;;;;;;;;;;;;;;;;5052908;28;20058;-83
2023/12/26 04:28:41;;;;;;;;;;;;;;;;;;5031176;28;19921;-83
2023/12/26 04:34:36;;;;;;;;;;;;;;;;;;4992774;28;20004;-82
2023/12/26 04:40:11;;;;;;;;;;;;;;;;;;5001010;28;20338;-82
2023/12/26 04:43:15;;;;;;;;;;;;;;;;;;5011822;28;20080;-83
2023/12/26 04:46:15;;;;;;;;;;;;;;;;;;5012142;28;19916;-83
2023/12/26 04:54:41;;;;;;;;;;;;;;;;;;5004174;28;19999;-83
2023/12/26 04:57:42;;;;;;;;;;;;;;;;;;4976607;28;19917;-83
2023/12/26 05:00:17;;;;;;;;;;;;;;;;;;4969167;28;19979;-83
2023/12/26 05:02:58;;;;;;;;;;;;;;;;;;5033169;28;19928;-82
2023/12/26 05:06:00;;;;;;;;;;;;;;;;;;5045791;28;19916;-84
2023/12/26 05:08:29;;;;;;;;;;;;;;;;;;5034218;28;19921;-83
2023/12/26 05:10:58;;;;;;;;;;;;;;;;;;5053254;28;19920;-84
2023/12/26 05:13:39;;;;;;;;;;;;;;;;;;5009411;28;20373;-83
2023/12/26 05:16:31;;;;;;;;;;;;;;;;;;5052825;28;19934;-83
2023/12/26 05:18:57;;;;;;;;;;;;;;;;;;5035713;28;20004;-83
2023/12/26 05:21:29;;;;;;;;;;;;;;;;;;5051457;28;20328;-84
2023/12/26 05:23:57;;;;;;;;;;;;;;;;;;5053060;28;19925;-83
2023/12/26 05:26:38;;;;;;;;;;;;;;;;;;5054203;28;19925;-83
2023/12/26 05:29:07;;;;;;;;;;;;;;;;;;5050591;28;20369;-84
2023/12/26 05:31:35;;;;;;;;;;;;;;;;;;5051907;28;20421;-83
2023/12/26 05:34:01;;;;;;;;;;;;;;;;;;5035276;28;20365;-84
2023/12/26 05:36:28;;;;;;;;;;;;;;;;;;5052433;28;19924;-84
2023/12/26 05:38:54;;;;;;;;;;;;;;;;;;5052819;28;20019;-84
2023/12/26 05:41:21;;;;;;;;;;;;;;;;;;5034870;28;20258;-83
2023/12/26 05:43:55;;;;;;;;;;;;;;;;;;5051622;28;19921;-83
2023/12/26 05:46:24;;;;;;;;;;;;;;;;;;5049000;28;19921;-83
2023/12/26 05:48:50;;;;;;;;;;;;;;;;;;5031608;28;19921;-84
2023/12/26 05:51:17;;;;;;;;;;;;;;;;;;5031827;28;19991;-83
2023/12/26 05:53:50;;;;;;;;;;;;;;;;;;5031696;28;19979;-83
2023/12/26 05:56:28;;;;;;;;;;;;;;;;;;5031154;28;19921;-84
2023/12/26 05:59:04;;;;;;;;;;;;;;;;;;5032291;28;19921;-84
2023/12/26 06:01:32;;;;;;;;;;;;;;;;;;5015569;28;20040;-84
2023/12/26 06:03:58;;;;;;;;;;;;;;;;;;5021661;28;20574;-84
2023/12/26 06:06:25;;;;;;;;;;;;;;;;;;5013829;28;19947;-83
2023/12/26 06:08:51;;;;;;;;;;;;;;;;;;5014373;28;19929;-84
2023/12/26 06:11:17;;;;;;;;;;;;;;;;;;4997652;28;20027;-84
2023/12/26 06:13:43;;;;;;;;;;;;;;;;;;4997144;28;20019;-83
2023/12/26 06:16:11;;;;;;;;;;;;;;;;;;5013269;28;19921;-83
2023/12/26 06:18:37;;;;;;;;;;;;;;;;;;4996872;28;19972;-83
2023/12/26 06:21:03;;;;;;;;;;;;;;;;;;5004689;28;19971;-83
2023/12/26 06:23:31;;;;;;;;;;;;;;;;;;4997043;28;20409;-84
2023/12/26 06:25:57;;;;;;;;;;;;;;;;;;4996708;28;20293;-84
2023/12/26 06:28:23;;;;;;;;;;;;;;;;;;4996474;28;19920;-84
2023/12/26 06:30:49;;;;;;;;;;;;;;;;;;4997168;28;19970;-83
2023/12/26 06:33:15;;;;;;;;;;;;;;;;;;4997929;28;19921;-84
2023/12/26 06:35:44;;;;;;;;;;;;;;;;;;5028986;28;20015;-83
2023/12/26 06:38:12;;;;;;;;;;;;;;;;;;5028134;28;20342;-84
2023/12/26 06:40:39;;;;;;;;;;;;;;;;;;5034213;28;19932;-84
2023/12/26 06:43:05;;;;;;;;;;;;;;;;;;5050510;28;19921;-84
2023/12/26 06:45:31;;;;;;;;;;;;;;;;;;5034512;28;20354;-84
2023/12/26 06:47:58;;;;;;;;;;;;;;;;;;5035005;28;19925;-83
2023/12/26 06:50:27;;;;;;;;;;;;;;;;;;5050396;28;20142;-84
2023/12/26 06:52:53;;;;;;;;;;;;;;;;;;5034876;28;20402;-84
2023/12/26 06:55:19;;;;;;;;;;;;;;;;;;5034027;28;19920;-85
2023/12/26 06:57:45;;;;;;;;;;;;;;;;;;5032205;28;20158;-84
2023/12/26 07:00:11;;;;;;;;;;;;;;;;;;5034385;28;20015;-83
2023/12/26 07:02:37;;;;;;;;;;;;;;;;;;5034510;28;19929;-83
2023/12/26 07:05:06;;;;;;;;;;;;;;;;;;5052025;28;19967;-83
2023/12/26 07:07:32;;;;;;;;;;;;;;;;;;5033937;28;20370;-83
2023/12/26 07:09:59;;;;;;;;;;;;;;;;;;5034291;28;19924;-83
2023/12/26 07:12:25;;;;;;;;;;;;;;;;;;5033731;28;19967;-84
2023/12/26 07:14:54;;;;;;;;;;;;;;;;;;5051206;28;19928;-83
2023/12/26 07:17:26;;;;;;;;;;;;;;;;;;5034478;28;20019;-83
2023/12/26 07:19:52;;;;;;;;;;;;;;;;;;5033904;28;20011;-84
2023/12/26 07:22:18;;;;;;;;;;;;;;;;;;5034480;28;19925;-84
2023/12/26 07:24:44;;;;;;;;;;;;;;;;;;5034000;28;20004;-83
2023/12/26 07:27:10;;;;;;;;;;;;;;;;;;5033751;28;19920;-83
2023/12/26 07:29:42;;;;;;;;;;;;;;;;;;5034852;28;19927;-83
2023/12/26 07:32:08;;;;;;;;;;;;;;;;;;5034807;28;19928;-83
2023/12/26 07:34:34;;;;;;;;;;;;;;;;;;5033111;28;20384;-83
2023/12/26 07:37:00;;;;;;;;;;;;;;;;;;5034111;28;20011;-84
2023/12/26 07:39:26;;;;;;;;;;;;;;;;;;5033618;28;19931;-84
2023/12/26 07:41:52;;;;;;;;;;;;;;;;;;5033893;28;19947;-84
2023/12/26 07:44:18;;;;;;;;;;;;;;;;;;5033569;28;20019;-84
2023/12/26 07:46:44;;;;;;;;;;;;;;;;;;5034139;28;19920;-83
2023/12/26 07:49:09;;;;;;;;;;;;;;;;;;5033599;28;20365;-84
2023/12/26 07:51:38;;;;;;;;;;;;;;;;;;5033418;28;19928;-84
2023/12/26 07:54:04;;;;;;;;;;;;;;;;;;5035827;28;19920;-84
2023/12/26 07:56:30;;;;;;;;;;;;;;;;;;5037774;28;19921;-84
2023/12/26 07:58:56;;;;;;;;;;;;;;;;;;5045027;28;19951;-84
2023/12/26 08:01:25;;;;;;;;;;;;;;;;;;5074962;28;19920;-80
2023/12/26 08:04:08;;;;;;;;;;;;;;;;;;5075421;28;19929;-83
2023/12/26 08:06:34;;;;;;;;;;;;;;;;;;5057308;28;19928;-83
2023/12/26 08:09:01;;;;;;;;;;;;;;;;;;5054296;28;19959;-86
2023/12/26 08:11:27;;;;;;;;;;;;;;;;;;5037956;28;19928;-83
2023/12/26 08:13:53;;;;;;;;;;;;;;;;;;5036355;28;20144;-83
2023/12/26 08:16:19;;;;;;;;;;;;;;;;;;5037854;28;20262;-83
2023/12/26 08:18:45;;;;;;;;;;;;;;;;;;5036621;28;19982;-83
2023/12/26 08:21:11;;;;;;;;;;;;;;;;;;5067547;28;20429;-84
2023/12/26 08:23:37;;;;;;;;;;;;;;;;;;5047234;28;19924;-84
2023/12/26 08:26:12;;;;;;;;;;;;;;;;;;5054048;28;19967;-84
2023/12/26 08:28:38;;;;;;;;;;;;;;;;;;5036014;28;19924;-84
2023/12/26 08:31:07;;;;;;;;;;;;;;;;;;5054062;28;19924;-84
2023/12/26 08:33:35;;;;;;;;;;;;;;;;;;5067628;28;19927;-84
2023/12/26 08:36:01;;;;;;;;;;;;;;;;;;5056220;28;19974;-85
2023/12/26 08:38:36;;;;;;;;;;;;;;;;;;5073707;28;19920;-84
2023/12/26 08:41:02;;;;;;;;;;;;;;;;;;5055117;28;19955;-84
2023/12/26 08:43:28;;;;;;;;;;;;;;;;;;5047582;28;19932;-84
2023/12/26 08:46:06;;;;;;;;;;;;;;;;;;5038616;28;19921;-84
2023/12/26 08:48:35;;;;;;;;;;;;;;;;;;5064860;28;19920;-84
2023/12/26 08:51:01;;;;;;;;;;;;;;;;;;5036517;28;20460;-84
2023/12/26 08:53:30;;;;;;;;;;;;;;;;;;5053179;28;19941;-84
2023/12/26 08:55:57;;;;;;;;;;;;;;;;;;5035623;28;19921;-85
2023/12/26 08:58:27;;;;;;;;;;;;;;;;;;5035896;28;19921;-82
2023/12/26 09:00:53;;;;;;;;;;;;;;;;;;5036514;28;19920;-82
2023/12/26 09:03:19;;;;;;;;;;;;;;;;;;5025334;28;19927;-82
2023/12/26 09:05:44;;;;;;;;;;;;;;;;;;5035421;28;19922;-82
2023/12/26 09:08:11;;;;;;;;;;;;;;;;;;5049754;28;20022;-82
2023/12/26 09:10:40;;;;;;;;;;;;;;;;;;5052827;28;20000;-82
2023/12/26 09:13:06;;;;;;;;;;;;;;;;;;5035023;28;20387;-82
2023/12/26 09:15:32;;;;;;;;;;;;;;;;;;5043687;28;20011;-83
2023/12/26 09:18:04;;;;;;;;;;;;;;;;;;5051216;28;20029;-83
2023/12/26 09:20:30;;;;;;;;;;;;;;;;;;5036102;28;19920;-88
2023/12/26 09:22:58;;;;;;;;;;;;;;;;;;5051624;28;20015;-84
2023/12/26 09:25:24;;;;;;;;;;;;;;;;;;5037503;28;20442;-82
2023/12/26 09:27:53;;;;;;;;;;;;;;;;;;5062626;28;19920;-83
2023/12/26 09:30:19;;;;;;;;;;;;;;;;;;5034658;28;20011;-83
2023/12/26 09:32:45;;;;;;;;;;;;;;;;;;5035816;28;20021;-85
2023/12/26 09:35:20;;;;;;;;;;;;;;;;;;5038484;28;20395;-84
2023/12/26 09:37:47;;;;;;;;;;;;;;;;;;5033426;28;20015;-85
2023/12/26 09:40:13;;;;;;;;;;;;;;;;;;5051673;28;19928;-84
2023/12/26 09:42:46;;;;;;;;;;;;;;;;;;5034731;28;19927;-85
2023/12/26 09:45:18;;;;;;;;;;;;;;;;;;5051191;28;19931;-85
2023/12/26 09:47:51;;;;;;;;;;;;;;;;;;5050801;28;19925;-84
2023/12/26 09:50:19;;;;;;;;;;;;;;;;;;5036429;28;19943;-84
2023/12/26 09:52:52;;;;;;;;;;;;;;;;;;5035108;28;19920;-85
2023/12/26 09:55:30;;;;;;;;;;;;;;;;;;5050710;28;20004;-86
2023/12/26 09:57:57;;;;;;;;;;;;;;;;;;5050315;28;19995;-84
2023/12/26 10:00:23;;;;;;;;;;;;;;;;;;5058344;28;20070;-84
2023/12/26 10:02:50;;;;;;;;;;;;;;;;;;5022032;28;19964;-85
2023/12/26 10:05:22;;;;;;;;;;;;;;;;;;5034118;28;19927;-86
2023/12/26 10:07:48;;;;;;;;;;;;;;;;;;5039697;28;19924;-84
2023/12/26 10:10:21;;;;;;;;;;;;;;;;;;5035063;28;19928;-85
2023/12/26 10:12:47;;;;;;;;;;;;;;;;;;5034323;28;19920;-86
2023/12/26 10:15:13;;;;;;;;;;;;;;;;;;5033361;28;19935;-86
2023/12/26 10:17:39;;;;;;;;;;;;;;;;;;5034650;28;20312;-85
2023/12/26 10:20:05;;;;;;;;;;;;;;;;;;5033864;28;20019;-85
2023/12/26 10:22:37;;;;;;;;;;;;;;;;;;5053755;28;20336;-85
2023/12/26 10:25:03;;;;;;;;;;;;;;;;;;5054874;28;19942;-85
2023/12/26 10:27:30;;;;;;;;;;;;;;;;;;5069476;28;20081;-85
2023/12/26 10:29:58;;;;;;;;;;;;;;;;;;5050972;28;20000;-85
2023/12/26 10:32:25;;;;;;;;;;;;;;;;;;5051270;28;20277;-85
2023/12/26 10:34:51;;;;;;;;;;;;;;;;;;5050507;28;19956;-85
2023/12/26 10:37:17;;;;;;;;;;;;;;;;;;5034737;28;20557;-85
2023/12/26 10:39:43;;;;;;;;;;;;;;;;;;5035140;28;20028;-83
2023/12/26 10:42:10;;;;;;;;;;;;;;;;;;5028574;28;19928;-85
2023/12/26 10:44:52;;;;;;;;;;;;;;;;;;5035108;28;20011;-89
2023/12/26 10:47:19;;;;;;;;;;;;;;;;;;5034680;28;19971;-82
2023/12/26 10:49:45;;;;;;;;;;;;;;;;;;5032838;28;20251;-85
2023/12/26 10:52:11;;;;;;;;;;;;;;;;;;5014148;28;19948;-85
2023/12/26 10:54:38;;;;;;;;;;;;;;;;;;5021112;28;19924;-84
2023/12/26 10:57:04;;;;;;;;;;;;;;;;;;5033719;28;19920;-85
2023/12/26 13:52:35;;;;;;;;;;;;;;;;;;5072054;28;20431;-82
2023/12/26 13:55:01;;;;;;;;;;;;;;;;;;5052566;28;19920;-83
2023/12/26 13:57:27;;;;;;;;;;;;;;;;;;5040772;28;20047;-83
2023/12/26 13:59:53;;;;;;;;;;;;;;;;;;5056007;28;19927;-82
2023/12/26 14:02:19;;;;;;;;;;;;;;;;;;5071847;28;19971;-83
2023/12/26 14:04:45;;;;;;;;;;;;;;;;;;5054926;28;19920;-82
2023/12/26 14:07:11;;;;;;;;;;;;;;;;;;5055633;28;19920;-83
2023/12/26 14:09:37;;;;;;;;;;;;;;;;;;5055078;28;19928;-83
2023/12/26 14:12:03;;;;;;;;;;;;;;;;;;5054949;28;19921;-82
2023/12/26 14:14:29;;;;;;;;;;;;;;;;;;5051869;28;19920;-82
2023/12/26 14:16:55;;;;;;;;;;;;;;;;;;5055799;28;19920;-83
2023/12/26 14:19:21;;;;;;;;;;;;;;;;;;5059928;28;20376;-82
2023/12/26 14:21:47;;;;;;;;;;;;;;;;;;5052424;28;19920;-83
2023/12/26 14:24:13;;;;;;;;;;;;;;;;;;5046761;28;19921;-82
2023/12/26 14:26:39;;;;;;;;;;;;;;;;;;5071829;28;20376;-83
2023/12/26 14:29:05;;;;;;;;;;;;;;;;;;5054371;28;19920;-83
2023/12/26 14:31:31;;;;;;;;;;;;;;;;;;5071606;28;19978;-83
2023/12/26 14:33:57;;;;;;;;;;;;;;;;;;5050181;28;19921;-82
2023/12/26 14:36:23;;;;;;;;;;;;;;;;;;5034893;28;19928;-83
2023/12/26 14:38:49;;;;;;;;;;;;;;;;;;5035213;28;20034;-83
2023/12/26 14:41:15;;;;;;;;;;;;;;;;;;5051614;28;19974;-83
2023/12/26 14:43:42;;;;;;;;;;;;;;;;;;5051027;28;19935;-79
2023/12/26 14:46:08;;;;;;;;;;;;;;;;;;5071527;28;19928;-83
2023/12/26 14:48:37;;;;;;;;;;;;;;;;;;5072395;28;20104;-84
2023/12/26 14:51:04;;;;;;;;;;;;;;;;;;5071610;28;20397;-83
2023/12/26 14:53:30;;;;;;;;;;;;;;;;;;5058299;28;19921;-84
2023/12/26 14:55:57;;;;;;;;;;;;;;;;;;5034685;28;19932;-83
2023/12/26 14:58:23;;;;;;;;;;;;;;;;;;5030902;28;19964;-84
2023/12/26 15:00:49;;;;;;;;;;;;;;;;;;5030007;28;19987;-83
2023/12/26 15:03:33;;;;;;;;;;;;;;;;;;5050750;28;20338;-83
2023/12/26 15:06:11;;;;;;;;;;;;;;;;;;5043174;28;20362;-87
2023/12/26 15:08:40;;;;;;;;;;;;;;;;;;5047132;28;19930;-85
2023/12/26 15:11:06;;;;;;;;;;;;;;;;;;5019746;28;19924;-85
2023/12/26 15:13:32;;;;;;;;;;;;;;;;;;5045746;28;19920;-85
2023/12/26 15:15:58;;;;;;;;;;;;;;;;;;5027707;28;20007;-85
2023/12/26 15:18:25;;;;;;;;;;;;;;;;;;5034037;28;19990;-85
2023/12/26 15:20:51;;;;;;;;;;;;;;;;;;5034724;28;19963;-86
2023/12/26 15:23:21;;;;;;;;;;;;;;;;;;5023234;28;20399;-85
2023/12/26 15:25:47;;;;;;;;;;;;;;;;;;5033064;28;19921;-85
2023/12/26 15:28:13;;;;;;;;;;;;;;;;;;5028510;28;19928;-85
2023/12/26 15:30:39;;;;;;;;;;;;;;;;;;5049439;28;20285;-86
2023/12/26 15:33:05;;;;;;;;;;;;;;;;;;5049661;28;19999;-86
2023/12/26 15:35:31;;;;;;;;;;;;;;;;;;5050403;28;19928;-86
2023/12/26 15:37:57;;;;;;;;;;;;;;;;;;5048749;28;20008;-86
2023/12/26 15:40:23;;;;;;;;;;;;;;;;;;5055830;28;19920;-87
2023/12/26 15:42:49;;;;;;;;;;;;;;;;;;5038908;28;20016;-86
2023/12/26 15:45:19;;;;;;;;;;;;;;;;;;5051197;28;20407;-86
2023/12/26 15:47:45;;;;;;;;;;;;;;;;;;5060136;28;19921;-85
2023/12/26 15:50:11;;;;;;;;;;;;;;;;;;5031979;28;19944;-85
2023/12/26 15:52:37;;;;;;;;;;;;;;;;;;5050404;28;19935;-86
2023/12/26 15:55:03;;;;;;;;;;;;;;;;;;5049179;28;19921;-86
2023/12/26 15:57:29;;;;;;;;;;;;;;;;;;5032560;28;19921;-85
2023/12/26 15:59:55;;;;;;;;;;;;;;;;;;5034163;28;19932;-85
2023/12/26 16:02:22;;;;;;;;;;;;;;;;;;5027931;28;19999;-84
2023/12/26 16:04:48;;;;;;;;;;;;;;;;;;5024764;28;20678;-85
2023/12/26 16:07:14;;;;;;;;;;;;;;;;;;5030970;28;19952;-85
2023/12/26 16:09:40;;;;;;;;;;;;;;;;;;5013862;28;20465;-85
2023/12/26 16:12:07;;;;;;;;;;;;;;;;;;5047219;28;19964;-85
2023/12/26 16:14:33;;;;;;;;;;;;;;;;;;5034687;28;19921;-85
2023/12/26 16:16:59;;;;;;;;;;;;;;;;;;5030877;28;19921;-85
2023/12/26 16:19:25;;;;;;;;;;;;;;;;;;5031124;28;19925;-86
2023/12/26 16:21:51;;;;;;;;;;;;;;;;;;5048711;28;19928;-86
2023/12/26 16:24:17;;;;;;;;;;;;;;;;;;5032373;28;19947;-85
2023/12/26 16:26:46;;;;;;;;;;;;;;;;;;5040231;28;19921;-86
2023/12/26 16:29:27;;;;;;;;;;;;;;;;;;5049480;28;20297;-85
2023/12/26 16:31:53;;;;;;;;;;;;;;;;;;5050124;28;19943;-84
2023/12/26 16:34:19;;;;;;;;;;;;;;;;;;5037822;28;19921;-84
2023/12/26 16:36:53;;;;;;;;;;;;;;;;;;5038026;28;20354;-83
2023/12/26 16:39:20;;;;;;;;;;;;;;;;;;5053697;28;19920;-85
2023/12/26 16:41:52;;;;;;;;;;;;;;;;;;5036411;28;19943;-81
2023/12/26 16:44:18;;;;;;;;;;;;;;;;;;5036066;28;19925;-79
2023/12/26 16:46:45;;;;;;;;;;;;;;;;;;5036273;28;19920;-81
2023/12/26 16:49:11;;;;;;;;;;;;;;;;;;5035128;28;20372;-83
2023/12/26 16:51:37;;;;;;;;;;;;;;;;;;5036514;28;19928;-81
2023/12/26 16:54:04;;;;;;;;;;;;;;;;;;5053140;28;19927;-83
2023/12/26 16:56:30;;;;;;;;;;;;;;;;;;5052355;28;19921;-83
2023/12/26 16:58:56;;;;;;;;;;;;;;;;;;5031991;28;20409;-82
2023/12/26 17:01:22;;;;;;;;;;;;;;;;;;5053784;28;19921;-82
2023/12/26 17:03:48;;;;;;;;;;;;;;;;;;5054678;28;20016;-82
2023/12/26 17:06:14;;;;;;;;;;;;;;;;;;5043541;28;20011;-82
2023/12/26 17:08:40;;;;;;;;;;;;;;;;;;5052370;28;20365;-85
2023/12/26 17:11:06;;;;;;;;;;;;;;;;;;5053046;28;20266;-80
2023/12/26 17:13:32;;;;;;;;;;;;;;;;;;5051751;28;20004;-81
2023/12/26 17:15:59;;;;;;;;;;;;;;;;;;5063907;28;19924;-83
2023/12/26 17:18:25;;;;;;;;;;;;;;;;;;5049772;28;19920;-80
2023/12/26 17:20:52;;;;;;;;;;;;;;;;;;5051492;28;19920;-83
2023/12/26 17:29:51;;;;;;;;;;;;;;;;;;5041284;28;20297;-83
2023/12/26 17:36:00;;;;;;;;;;;;;;;;;;4970565;28;19926;-82
2023/12/26 17:45:10;;;;;;;;;;;;;;;;;;4956639;28;19917;-83
2023/12/26 17:48:11;;;;;;;;;;;;;;;;;;4952419;28;19962;-83
2023/12/26 17:51:01;;;;;;;;;;;;;;;;;;4924335;29;20893;-83
2023/12/26 17:57:22;;;;;;;;;;;;;;;;;;4841974;29;20222;-83
2023/12/26 18:13:05;;;;;;;;;;;;;;;;;;4951369;28;20021;-85
2023/12/26 18:15:52;;;;;;;;;;;;;;;;;;4943887;29;19993;-80
2023/12/26 18:18:18;;;;;;;;;;;;;;;;;;4995055;28;19948;-78
2023/12/26 18:20:44;;;;;;;;;;;;;;;;;;5022478;28;19921;-82
2023/12/26 18:23:25;;;;;;;;;;;;;;;;;;4997946;28;20067;-83
2023/12/26 18:25:51;;;;;;;;;;;;;;;;;;4994194;28;19921;-85
2023/12/26 18:28:17;;;;;;;;;;;;;;;;;;4989531;28;19921;-85
2023/12/26 18:30:46;;;;;;;;;;;;;;;;;;5034496;28;19929;-86
2023/12/26 18:33:15;;;;;;;;;;;;;;;;;;5030304;28;19971;-85
2023/12/26 18:35:41;;;;;;;;;;;;;;;;;;4994325;28;19922;-84
2023/12/26 18:38:07;;;;;;;;;;;;;;;;;;5007293;28;19921;-85
2023/12/26 18:40:33;;;;;;;;;;;;;;;;;;5013646;28;19921;-86
2023/12/26 18:43:00;;;;;;;;;;;;;;;;;;4991529;28;19948;-85
2023/12/26 18:45:30;;;;;;;;;;;;;;;;;;5007404;28;19925;-84
2023/12/26 18:47:56;;;;;;;;;;;;;;;;;;4990820;28;19925;-85
2023/12/26 18:50:22;;;;;;;;;;;;;;;;;;5013741;28;20493;-84
2023/12/26 18:52:48;;;;;;;;;;;;;;;;;;4989585;28;19947;-84
2023/12/26 18:55:14;;;;;;;;;;;;;;;;;;4989576;28;20002;-84
2023/12/26 18:57:40;;;;;;;;;;;;;;;;;;4994179;28;19921;-86
2023/12/26 19:00:06;;;;;;;;;;;;;;;;;;5045553;28;19921;-85
2023/12/26 19:02:32;;;;;;;;;;;;;;;;;;5050912;28;19920;-86
2023/12/26 19:04:58;;;;;;;;;;;;;;;;;;5038173;28;19925;-86
2023/12/26 19:07:24;;;;;;;;;;;;;;;;;;5034220;28;19925;-86
2023/12/26 19:09:50;;;;;;;;;;;;;;;;;;5038382;28;20015;-86
2023/12/26 19:12:19;;;;;;;;;;;;;;;;;;5056503;28;19994;-86
2023/12/26 19:14:45;;;;;;;;;;;;;;;;;;5050723;28;19947;-85
2023/12/26 19:17:13;;;;;;;;;;;;;;;;;;5049321;28;19925;-85
2023/12/26 19:19:39;;;;;;;;;;;;;;;;;;5037293;28;19927;-86
2023/12/26 19:22:05;;;;;;;;;;;;;;;;;;5054826;28;20340;-86
2023/12/26 19:24:31;;;;;;;;;;;;;;;;;;5032799;28;19921;-85
2023/12/26 19:26:58;;;;;;;;;;;;;;;;;;5027970;28;19925;-88
2023/12/26 19:29:24;;;;;;;;;;;;;;;;;;5031604;28;19921;-86
2023/12/26 19:31:50;;;;;;;;;;;;;;;;;;5050760;28;20015;-85
2023/12/26 19:34:16;;;;;;;;;;;;;;;;;;5036719;28;20429;-85
2023/12/26 19:36:42;;;;;;;;;;;;;;;;;;5026369;28;19974;-85
2023/12/26 19:39:11;;;;;;;;;;;;;;;;;;5029075;28;20013;-85
2023/12/26 19:41:37;;;;;;;;;;;;;;;;;;5014328;28;20413;-85
2023/12/26 19:44:03;;;;;;;;;;;;;;;;;;5031023;28;19927;-85
2023/12/26 19:46:29;;;;;;;;;;;;;;;;;;5034390;28;19978;-85
2023/12/26 19:48:56;;;;;;;;;;;;;;;;;;5029023;28;20356;-85
2023/12/26 19:51:22;;;;;;;;;;;;;;;;;;5041629;28;19925;-83
2023/12/26 19:53:48;;;;;;;;;;;;;;;;;;5049065;28;20007;-85
2023/12/26 19:56:14;;;;;;;;;;;;;;;;;;5037085;28;19932;-85
2023/12/26 19:58:40;;;;;;;;;;;;;;;;;;5029940;28;19921;-86
2023/12/26 20:01:06;;;;;;;;;;;;;;;;;;5043346;28;19921;-86
2023/12/26 20:03:33;;;;;;;;;;;;;;;;;;5031739;28;19921;-86
2023/12/26 20:06:00;;;;;;;;;;;;;;;;;;5042388;28;19921;-86
2023/12/26 20:08:26;;;;;;;;;;;;;;;;;;5024556;28;19920;-86
2023/12/26 20:10:52;;;;;;;;;;;;;;;;;;5054313;28;20332;-86
2023/12/26 20:13:18;;;;;;;;;;;;;;;;;;5030248;28;20406;-85
2023/12/26 20:15:44;;;;;;;;;;;;;;;;;;5036930;28;19946;-86
2023/12/26 20:18:10;;;;;;;;;;;;;;;;;;5054231;28;19963;-85
2023/12/26 20:20:36;;;;;;;;;;;;;;;;;;5037892;28;20061;-86
2023/12/26 20:23:02;;;;;;;;;;;;;;;;;;5058142;28;19920;-85
2023/12/26 20:25:28;;;;;;;;;;;;;;;;;;5050599;28;19925;-86
2023/12/26 20:27:54;;;;;;;;;;;;;;;;;;5046602;28;19947;-85
2023/12/26 20:30:20;;;;;;;;;;;;;;;;;;5035408;28;20092;-86
2023/12/26 20:32:46;;;;;;;;;;;;;;;;;;5027253;28;19920;-86
2023/12/26 20:35:12;;;;;;;;;;;;;;;;;;5026687;28;19964;-86
2023/12/26 20:37:38;;;;;;;;;;;;;;;;;;5044934;28;20016;-86
2023/12/26 20:40:04;;;;;;;;;;;;;;;;;;5021673;28;20270;-86
2023/12/26 20:42:32;;;;;;;;;;;;;;;;;;5024998;28;19986;-86
2023/12/26 20:44:58;;;;;;;;;;;;;;;;;;5052329;28;19924;-86
2023/12/26 20:47:24;;;;;;;;;;;;;;;;;;5042362;28;20071;-85
2023/12/26 20:49:50;;;;;;;;;;;;;;;;;;5028518;28;19920;-85
2023/12/26 20:52:16;;;;;;;;;;;;;;;;;;5042413;28;20350;-84
2023/12/26 20:54:42;;;;;;;;;;;;;;;;;;5027404;28;19927;-85
2023/12/26 20:57:08;;;;;;;;;;;;;;;;;;5043471;28;20411;-87
2023/12/26 20:59:34;;;;;;;;;;;;;;;;;;5041485;28;19986;-86
2023/12/26 21:02:00;;;;;;;;;;;;;;;;;;5056453;28;19921;-85
2023/12/26 21:04:26;;;;;;;;;;;;;;;;;;5050647;28;19966;-86
2023/12/26 21:06:52;;;;;;;;;;;;;;;;;;5032696;28;20261;-86
2023/12/26 21:09:18;;;;;;;;;;;;;;;;;;5035847;28;19964;-86
2023/12/26 21:11:44;;;;;;;;;;;;;;;;;;5050257;28;19921;-86
2023/12/26 21:14:10;;;;;;;;;;;;;;;;;;5051095;28;19920;-85
2023/12/26 21:16:36;;;;;;;;;;;;;;;;;;5047045;28;19971;-85
2023/12/26 21:19:02;;;;;;;;;;;;;;;;;;5054226;28;19928;-85
2023/12/26 21:21:28;;;;;;;;;;;;;;;;;;5052803;28;19929;-86
2023/12/26 21:23:54;;;;;;;;;;;;;;;;;;5036721;28;20358;-86
2023/12/26 21:26:22;;;;;;;;;;;;;;;;;;5029995;28;19928;-86
2023/12/26 21:28:49;;;;;;;;;;;;;;;;;;5053419;28;19921;-86
2023/12/26 21:31:15;;;;;;;;;;;;;;;;;;5061449;28;19927;-86
2023/12/26 21:33:44;;;;;;;;;;;;;;;;;;5036316;28;19921;-87
2023/12/26 21:36:10;;;;;;;;;;;;;;;;;;5031111;28;19927;-86
2023/12/26 21:38:38;;;;;;;;;;;;;;;;;;5049548;28;20007;-87
2023/12/26 21:41:04;;;;;;;;;;;;;;;;;;5055676;28;19925;-87
2023/12/26 21:43:30;;;;;;;;;;;;;;;;;;5045687;28;20332;-87
2023/12/26 21:45:56;;;;;;;;;;;;;;;;;;5041590;28;19955;-86
2023/12/26 21:48:22;;;;;;;;;;;;;;;;;;5052283;28;19944;-87
2023/12/26 21:50:48;;;;;;;;;;;;;;;;;;5035494;28;20350;-86
2023/12/26 21:53:14;;;;;;;;;;;;;;;;;;5039767;28;19921;-86
2023/12/26 21:55:40;;;;;;;;;;;;;;;;;;5033221;28;19943;-86
2023/12/26 21:58:06;;;;;;;;;;;;;;;;;;5039201;28;19970;-86
2023/12/26 22:00:34;;;;;;;;;;;;;;;;;;5050220;28;19956;-87
2023/12/26 22:03:00;;;;;;;;;;;;;;;;;;5035342;28;19928;-86
2023/12/26 22:05:26;;;;;;;;;;;;;;;;;;5051138;28;19924;-86
2023/12/26 22:07:52;;;;;;;;;;;;;;;;;;5039749;28;19921;-86
2023/12/26 22:10:18;;;;;;;;;;;;;;;;;;5039092;28;19925;-86
2023/12/26 22:12:45;;;;;;;;;;;;;;;;;;5033286;28;20017;-87
2023/12/26 22:15:11;;;;;;;;;;;;;;;;;;5041513;28;19927;-86
2023/12/26 22:17:37;;;;;;;;;;;;;;;;;;5034438;28;19921;-87
2023/12/26 22:20:03;;;;;;;;;;;;;;;;;;5043387;28;19928;-86
2023/12/26 22:22:29;;;;;;;;;;;;;;;;;;5035455;28;20009;-87
2023/12/26 22:24:55;;;;;;;;;;;;;;;;;;5051140;28;20317;-86
2023/12/26 22:27:23;;;;;;;;;;;;;;;;;;5035706;28;20024;-86
2023/12/26 22:29:50;;;;;;;;;;;;;;;;;;5035112;28;19924;-86
2023/12/26 22:32:16;;;;;;;;;;;;;;;;;;5032660;28;19921;-85
2023/12/26 22:34:42;;;;;;;;;;;;;;;;;;5040147;28;19960;-86
2023/12/26 22:37:08;;;;;;;;;;;;;;;;;;5033457;28;20151;-86
2023/12/26 22:39:34;;;;;;;;;;;;;;;;;;5033993;28;19920;-86
2023/12/26 22:42:00;;;;;;;;;;;;;;;;;;5034068;28;19928;-86
2023/12/26 22:44:26;;;;;;;;;;;;;;;;;;5038688;28;19928;-85
2023/12/26 22:46:53;;;;;;;;;;;;;;;;;;5044087;28;19921;-85
2023/12/26 22:49:19;;;;;;;;;;;;;;;;;;5033389;28;20419;-86
2023/12/26 22:51:45;;;;;;;;;;;;;;;;;;5051493;28;19924;-85
2023/12/26 22:54:11;;;;;;;;;;;;;;;;;;5027556;28;19921;-86
2023/12/26 22:56:37;;;;;;;;;;;;;;;;;;5022958;28;19974;-86
2023/12/26 22:59:03;;;;;;;;;;;;;;;;;;5043620;28;19928;-86
2023/12/26 23:01:29;;;;;;;;;;;;;;;;;;5033517;28;19921;-86
2023/12/26 23:03:55;;;;;;;;;;;;;;;;;;5051482;28;19950;-86
2023/12/26 23:06:21;;;;;;;;;;;;;;;;;;5048938;28;20296;-85